Time;durP1;ratioP1;P1;durP2;ratioP2;P2;SDS_P1;SDS_P2;PMS_P1;PMS_P2;Temp;Humidity;BMP_temperature;BMP_pressure;BME280_temperature;BME280_humidity;BME280_pressure;Samples;Min_cycle;Max_cycle;Signal;HPM_P1;HPM_P2
2022/02/23 00:00:14;;;;;;;132.85;56.15;;;;;;;;;;5084042;28;20211;-93
2022/02/23 00:02:42;;;;;;;138.55;55.70;;;;;;;;;;5082466;28;20207;-96
2022/02/23 00:05:09;;;;;;;150.38;62.75;;;;;;;;;;5081609;28;20199;-94
2022/02/23 00:07:37;;;;;;;146.13;62.40;;;;;;;;;;5081934;28;20195;-95
2022/02/23 00:10:03;;;;;;;140.50;60.10;;;;;;;;;;5082281;28;20349;-96
2022/02/23 00:12:30;;;;;;;147.75;63.38;;;;;;;;;;5082587;28;20221;-96
2022/02/23 00:14:57;;;;;;;136.07;56.17;;;;;;;;;;5081662;28;20235;-95
2022/02/23 00:17:25;;;;;;;144.27;60.90;;;;;;;;;;5082639;28;20210;-89
2022/02/23 00:19:53;;;;;;;142.50;59.55;;;;;;;;;;5082104;28;20267;-92
2022/02/23 00:22:19;;;;;;;143.27;61.08;;;;;;;;;;5081621;28;20229;-96
2022/02/23 00:24:46;;;;;;;143.63;60.47;;;;;;;;;;5081541;28;20198;-95
2022/02/23 00:27:12;;;;;;;144.88;60.40;;;;;;;;;;5079599;28;20199;-95
2022/02/23 00:29:39;;;;;;;143.82;61.10;;;;;;;;;;5080928;28;20214;-95
2022/02/23 00:32:06;;;;;;;140.35;59.50;;;;;;;;;;5089753;28;20227;-96
2022/02/23 00:34:32;;;;;;;140.48;58.58;;;;;;;;;;5082584;28;20278;-95
2022/02/23 00:37:00;;;;;;;142.27;60.53;;;;;;;;;;5081451;28;20222;-93
2022/02/23 00:39:27;;;;;;;139.15;59.13;;;;;;;;;;5082451;28;20204;-96
2022/02/23 00:41:54;;;;;;;147.93;62.60;;;;;;;;;;5081136;28;20218;-94
2022/02/23 00:44:20;;;;;;;149.75;64.60;;;;;;;;;;5080385;28;20223;-94
2022/02/23 00:46:47;;;;;;;145.10;62.72;;;;;;;;;;5078967;28;20199;-94
2022/02/23 00:49:13;;;;;;;143.75;61.35;;;;;;;;;;5079492;28;20253;-96
2022/02/23 00:51:40;;;;;;;144.13;62.10;;;;;;;;;;5079336;28;20546;-94
2022/02/23 00:54:08;;;;;;;144.05;62.55;;;;;;;;;;5079270;28;20608;-94
2022/02/23 00:56:34;;;;;;;138.52;58.83;;;;;;;;;;5081911;28;20208;-95
2022/02/23 00:59:01;;;;;;;144.60;62.00;;;;;;;;;;5081336;28;20253;-95
2022/02/23 01:01:27;;;;;;;141.35;59.92;;;;;;;;;;5079634;28;20226;-93
2022/02/23 01:03:54;;;;;;;147.13;62.63;;;;;;;;;;5079380;28;20225;-94
2022/02/23 01:06:22;;;;;;;146.77;59.75;;;;;;;;;;5084522;28;20229;-93
2022/02/23 01:08:48;;;;;;;173.27;64.10;;;;;;;;;;5084650;28;20195;-95
2022/02/23 01:11:19;;;;;;;168.15;62.65;;;;;;;;;;5084622;28;20227;-96
2022/02/23 01:13:46;;;;;;;176.60;61.65;;;;;;;;;;5085083;28;20268;-93
2022/02/23 01:16:13;;;;;;;203.10;64.13;;;;;;;;;;5084134;28;20203;-96
2022/02/23 01:18:39;;;;;;;185.40;64.93;;;;;;;;;;5084497;28;20203;-95
2022/02/23 01:21:06;;;;;;;155.05;61.78;;;;;;;;;;5084266;28;20203;-96
2022/02/23 01:23:32;;;;;;;150.25;60.38;;;;;;;;;;5083766;28;20222;-96
2022/02/23 01:25:59;;;;;;;150.98;61.33;;;;;;;;;;5085073;28;21042;-95
2022/02/23 01:28:26;;;;;;;161.27;63.45;;;;;;;;;;5085374;28;20206;-94
2022/02/23 01:30:53;;;;;;;183.13;61.42;;;;;;;;;;5084009;28;20251;-93
2022/02/23 01:33:19;;;;;;;209.35;68.88;;;;;;;;;;5083868;28;20203;-94
2022/02/23 01:35:46;;;;;;;194.05;62.08;;;;;;;;;;5083892;28;20229;-93
2022/02/23 01:38:12;;;;;;;210.77;68.18;;;;;;;;;;5083989;28;20226;-94
2022/02/23 01:40:39;;;;;;;215.70;66.25;;;;;;;;;;5083240;28;20878;-94
2022/02/23 01:43:05;;;;;;;204.93;69.15;;;;;;;;;;5083374;28;20225;-95
2022/02/23 01:45:33;;;;;;;210.80;67.25;;;;;;;;;;5084065;28;20203;-94
2022/02/23 01:48:00;;;;;;;208.32;65.55;;;;;;;;;;5084133;28;20199;-96
2022/02/23 01:50:26;;;;;;;231.52;68.60;;;;;;;;;;5082191;28;20231;-95
2022/02/23 01:52:53;;;;;;;237.77;67.38;;;;;;;;;;5083235;28;20926;-94
2022/02/23 01:55:19;;;;;;;152.43;62.22;;;;;;;;;;5083198;28;20228;-94
2022/02/23 01:57:46;;;;;;;145.35;60.80;;;;;;;;;;5083372;28;20195;-93
2022/02/23 02:00:14;;;;;;;147.45;62.95;;;;;;;;;;5082894;28;20705;-94
2022/02/23 02:02:42;;;;;;;147.23;60.78;;;;;;;;;;5085580;28;20190;-94
2022/02/23 02:05:09;;;;;;;147.02;60.72;;;;;;;;;;5102115;28;20221;-93
2022/02/23 02:07:36;;;;;;;144.32;60.58;;;;;;;;;;5103388;28;20195;-93
2022/02/23 02:10:03;;;;;;;139.82;60.90;;;;;;;;;;5103784;28;20199;-93
2022/02/23 02:12:29;;;;;;;143.52;61.50;;;;;;;;;;5102998;28;20294;-93
2022/02/23 02:14:56;;;;;;;140.52;61.80;;;;;;;;;;5102705;28;20224;-94
2022/02/23 02:17:23;;;;;;;137.80;61.60;;;;;;;;;;5101730;28;20193;-94
2022/02/23 02:19:50;;;;;;;140.88;60.60;;;;;;;;;;5103219;28;20203;-95
2022/02/23 02:22:18;;;;;;;144.98;62.53;;;;;;;;;;5100153;28;20214;-92
2022/02/23 02:24:45;;;;;;;142.05;61.05;;;;;;;;;;5082709;28;20233;-94
2022/02/23 02:27:12;;;;;;;132.57;57.78;;;;;;;;;;5083074;28;20195;-94
2022/02/23 02:29:39;;;;;;;143.00;62.53;;;;;;;;;;5082511;28;20288;-93
2022/02/23 02:32:06;;;;;;;141.00;60.35;;;;;;;;;;5083044;28;20269;-95
2022/02/23 02:34:33;;;;;;;133.90;60.40;;;;;;;;;;5082755;28;20207;-94
2022/02/23 02:37:00;;;;;;;136.60;61.35;;;;;;;;;;5083235;28;20234;-95
2022/02/23 02:39:29;;;;;;;134.23;60.38;;;;;;;;;;5082900;28;20675;-93
2022/02/23 02:41:56;;;;;;;134.73;60.78;;;;;;;;;;5082892;28;20203;-93
2022/02/23 02:44:22;;;;;;;132.65;60.50;;;;;;;;;;5082755;28;20199;-92
2022/02/23 02:46:49;;;;;;;137.90;60.50;;;;;;;;;;5082650;28;20199;-92
2022/02/23 02:49:15;;;;;;;135.88;60.60;;;;;;;;;;5082372;28;20264;-96
2022/02/23 02:51:42;;;;;;;140.45;63.22;;;;;;;;;;5081871;28;20280;-93
2022/02/23 02:54:09;;;;;;;137.48;61.40;;;;;;;;;;5081782;28;20229;-94
2022/02/23 02:56:37;;;;;;;144.82;62.10;;;;;;;;;;5080725;28;20229;-93
2022/02/23 02:59:05;;;;;;;149.63;64.38;;;;;;;;;;5080763;28;20199;-95
2022/02/23 03:01:32;;;;;;;142.15;61.20;;;;;;;;;;5081401;28;20866;-94
2022/02/23 03:03:59;;;;;;;141.68;61.83;;;;;;;;;;5096563;28;20228;-94
2022/02/23 03:06:25;;;;;;;146.77;63.17;;;;;;;;;;5102302;28;20211;-95
2022/02/23 03:08:53;;;;;;;136.50;57.10;;;;;;;;;;5102995;28;20198;-93
2022/02/23 03:11:20;;;;;;;147.85;59.42;;;;;;;;;;5102303;28;21074;-95
2022/02/23 03:13:48;;;;;;;146.88;62.38;;;;;;;;;;5101192;28;20199;-94
2022/02/23 03:16:15;;;;;;;146.73;63.00;;;;;;;;;;5101867;28;20279;-93
2022/02/23 03:18:42;;;;;;;148.10;63.97;;;;;;;;;;5100206;28;20207;-94
2022/02/23 03:21:09;;;;;;;147.13;62.50;;;;;;;;;;5100750;28;20203;-93
2022/02/23 03:23:36;;;;;;;146.77;60.70;;;;;;;;;;5100311;28;20191;-94
2022/02/23 03:26:02;;;;;;;152.82;62.72;;;;;;;;;;5100605;28;20203;-95
2022/02/23 03:28:29;;;;;;;155.48;62.72;;;;;;;;;;5100078;28;20255;-94
2022/02/23 03:30:57;;;;;;;147.90;61.08;;;;;;;;;;5101393;28;20233;-95
2022/02/23 03:33:23;;;;;;;162.00;65.80;;;;;;;;;;5101373;28;20195;-93
2022/02/23 03:35:50;;;;;;;158.75;63.15;;;;;;;;;;5101983;28;20267;-93
2022/02/23 03:38:17;;;;;;;152.00;62.78;;;;;;;;;;5101634;28;20262;-92
2022/02/23 03:40:43;;;;;;;154.07;64.80;;;;;;;;;;5101939;28;20199;-91
2022/02/23 03:43:10;;;;;;;154.70;62.45;;;;;;;;;;5099749;28;20194;-92
2022/02/23 03:45:37;;;;;;;153.90;63.50;;;;;;;;;;5100867;28;20202;-92
2022/02/23 03:48:06;;;;;;;159.15;62.00;;;;;;;;;;5101376;28;20719;-92
2022/02/23 03:50:32;;;;;;;147.45;60.28;;;;;;;;;;5101899;28;20272;-95
2022/02/23 03:52:58;;;;;;;146.07;60.60;;;;;;;;;;5101106;28;20219;-91
2022/02/23 03:55:25;;;;;;;149.75;64.13;;;;;;;;;;5101548;28;20207;-92
2022/02/23 03:57:51;;;;;;;151.02;62.55;;;;;;;;;;5101702;28;20203;-90
2022/02/23 04:00:18;;;;;;;149.02;60.95;;;;;;;;;;5101947;28;20203;-91
2022/02/23 04:02:45;;;;;;;146.80;61.42;;;;;;;;;;5099741;28;20199;-91
2022/02/23 04:05:13;;;;;;;144.23;61.50;;;;;;;;;;5100724;28;20198;-91
2022/02/23 04:07:39;;;;;;;145.57;61.60;;;;;;;;;;5101792;28;20206;-91
2022/02/23 04:10:07;;;;;;;144.05;61.15;;;;;;;;;;5081114;28;20253;-93
2022/02/23 04:12:34;;;;;;;148.85;62.78;;;;;;;;;;5081132;28;20227;-91
2022/02/23 04:15:00;;;;;;;149.13;62.10;;;;;;;;;;5081070;28;20195;-91
2022/02/23 04:17:27;;;;;;;149.48;62.88;;;;;;;;;;5080785;28;20257;-91
2022/02/23 04:19:53;;;;;;;161.45;64.53;;;;;;;;;;5081344;28;20199;-92
2022/02/23 04:22:21;;;;;;;167.65;62.75;;;;;;;;;;5081075;28;20199;-91
2022/02/23 04:24:47;;;;;;;152.88;62.10;;;;;;;;;;5080721;28;20203;-94
2022/02/23 04:27:14;;;;;;;165.48;65.75;;;;;;;;;;5081435;28;20256;-91
2022/02/23 04:29:41;;;;;;;154.23;61.45;;;;;;;;;;5081486;28;20248;-91
2022/02/23 04:32:08;;;;;;;152.63;63.83;;;;;;;;;;5079740;28;20242;-92
2022/02/23 04:34:34;;;;;;;150.40;60.30;;;;;;;;;;5079863;28;20678;-95
2022/02/23 04:37:01;;;;;;;146.40;62.20;;;;;;;;;;5080327;28;20199;-93
2022/02/23 04:39:29;;;;;;;149.25;61.53;;;;;;;;;;5082426;28;20261;-92
2022/02/23 04:41:56;;;;;;;145.15;60.40;;;;;;;;;;5083113;28;20267;-91
2022/02/23 04:44:22;;;;;;;143.32;61.95;;;;;;;;;;5082585;28;20222;-92
2022/02/23 04:46:49;;;;;;;144.30;60.70;;;;;;;;;;5084421;28;20200;-92
2022/02/23 04:49:15;;;;;;;141.68;60.53;;;;;;;;;;5084957;28;20961;-91
2022/02/23 04:51:41;;;;;;;148.93;61.50;;;;;;;;;;5084317;28;20226;-91
2022/02/23 04:54:08;;;;;;;143.00;60.45;;;;;;;;;;5084282;28;20268;-90
2022/02/23 04:56:36;;;;;;;137.57;60.22;;;;;;;;;;5084700;28;20327;-91
2022/02/23 04:59:03;;;;;;;142.10;61.03;;;;;;;;;;5084877;28;20221;-90
2022/02/23 05:01:29;;;;;;;144.52;61.25;;;;;;;;;;5084010;28;20838;-90
2022/02/23 05:03:56;;;;;;;150.45;63.03;;;;;;;;;;5084150;28;20203;-90
2022/02/23 05:06:22;;;;;;;147.30;64.38;;;;;;;;;;5083646;28;20207;-90
2022/02/23 05:08:49;;;;;;;146.23;62.35;;;;;;;;;;5082409;28;20221;-90
2022/02/23 05:11:15;;;;;;;144.18;62.10;;;;;;;;;;5082643;28;20745;-90
2022/02/23 05:13:43;;;;;;;149.70;65.40;;;;;;;;;;5082889;28;20720;-90
2022/02/23 05:16:09;;;;;;;149.57;65.70;;;;;;;;;;5082455;28;20207;-90
2022/02/23 05:18:36;;;;;;;149.55;64.55;;;;;;;;;;5082321;28;21707;-89
2022/02/23 05:21:02;;;;;;;149.13;63.67;;;;;;;;;;5082933;28;20706;-90
2022/02/23 05:23:30;;;;;;;151.68;63.88;;;;;;;;;;5083845;28;20207;-92
2022/02/23 05:25:57;;;;;;;153.45;64.32;;;;;;;;;;5084013;28;20227;-92
2022/02/23 05:28:24;;;;;;;151.15;63.88;;;;;;;;;;5083717;28;20230;-92
2022/02/23 05:30:52;;;;;;;151.05;64.32;;;;;;;;;;5083111;28;20272;-91
2022/02/23 05:33:18;;;;;;;147.77;63.88;;;;;;;;;;5083447;28;20223;-92
2022/02/23 05:35:45;;;;;;;147.65;62.97;;;;;;;;;;5083486;28;20207;-90
2022/02/23 05:38:11;;;;;;;145.10;62.75;;;;;;;;;;5082758;28;20203;-92
2022/02/23 05:40:38;;;;;;;149.75;64.65;;;;;;;;;;5082865;28;20838;-93
2022/02/23 05:43:04;;;;;;;149.38;64.53;;;;;;;;;;5083071;28;20293;-92
2022/02/23 05:45:31;;;;;;;146.15;62.95;;;;;;;;;;5082951;28;20257;-93
2022/02/23 05:47:59;;;;;;;148.38;62.65;;;;;;;;;;5081950;28;20297;-93
2022/02/23 05:50:25;;;;;;;148.35;61.83;;;;;;;;;;5081373;28;20269;-93
2022/02/23 05:52:52;;;;;;;147.27;60.92;;;;;;;;;;5083664;28;20230;-92
2022/02/23 05:55:18;;;;;;;152.07;61.30;;;;;;;;;;5083472;28;20689;-94
2022/02/23 05:57:45;;;;;;;150.75;60.42;;;;;;;;;;5083922;28;20195;-92
2022/02/23 06:00:12;;;;;;;145.57;58.38;;;;;;;;;;5084336;28;20202;-95
2022/02/23 06:02:38;;;;;;;141.32;59.13;;;;;;;;;;5082679;28;20267;-96
2022/02/23 06:05:07;;;;;;;145.05;60.60;;;;;;;;;;5082241;28;20233;-93
2022/02/23 06:07:34;;;;;;;153.52;60.70;;;;;;;;;;5083209;28;20196;-95
2022/02/23 06:10:01;;;;;;;151.43;61.70;;;;;;;;;;5083636;28;20206;-92
2022/02/23 06:12:27;;;;;;;151.82;61.47;;;;;;;;;;5083757;28;20261;-95
2022/02/23 06:14:54;;;;;;;149.00;60.00;;;;;;;;;;5083648;28;20191;-95
2022/02/23 06:17:20;;;;;;;147.13;58.80;;;;;;;;;;5083638;28;20222;-95
2022/02/23 06:19:47;;;;;;;149.00;60.63;;;;;;;;;;5101108;28;20199;-94
2022/02/23 06:22:15;;;;;;;145.95;59.30;;;;;;;;;;5095928;28;20215;-94
2022/02/23 06:24:41;;;;;;;151.30;60.00;;;;;;;;;;5098372;28;20195;-95
2022/02/23 06:27:07;;;;;;;156.52;60.75;;;;;;;;;;5103280;28;20203;-92
2022/02/23 06:29:34;;;;;;;143.02;57.00;;;;;;;;;;5096580;28;20191;-92
2022/02/23 06:32:05;;;;;;;152.48;59.10;;;;;;;;;;5083908;28;20262;-91
2022/02/23 06:34:54;;;;;;;161.32;62.15;;;;;;;;;;5108419;28;20248;-96
2022/02/23 06:37:22;;;;;;;154.68;61.38;;;;;;;;;;5109407;28;20225;-96
2022/02/23 06:39:50;;;;;;;150.60;60.65;;;;;;;;;;5086046;28;20200;-94
2022/02/23 06:42:18;;;;;;;168.35;60.67;;;;;;;;;;5085141;28;20214;-95
2022/02/23 06:44:45;;;;;;;160.43;63.17;;;;;;;;;;5083752;28;20226;-95
2022/02/23 06:47:12;;;;;;;149.18;59.03;;;;;;;;;;5082132;28;20256;-96
2022/02/23 06:49:40;;;;;;;161.18;59.08;;;;;;;;;;5084417;28;20214;-94
2022/02/23 06:52:08;;;;;;;163.65;60.78;;;;;;;;;;5082841;28;20238;-96
2022/02/23 06:54:36;;;;;;;163.68;61.55;;;;;;;;;;5089534;28;20209;-93
2022/02/23 06:57:05;;;;;;;176.68;62.13;;;;;;;;;;5087449;28;20300;-94
2022/02/23 06:59:32;;;;;;;193.40;66.10;;;;;;;;;;5088908;28;20194;-95
2022/02/23 07:01:58;;;;;;;238.93;69.25;;;;;;;;;;5085143;28;20198;-95
2022/02/23 07:04:25;;;;;;;216.13;62.00;;;;;;;;;;5094611;28;20275;-94
2022/02/23 07:06:51;;;;;;;189.27;62.75;;;;;;;;;;5098015;28;20222;-96
2022/02/23 07:09:18;;;;;;;150.38;59.60;;;;;;;;;;5094493;28;20194;-94
2022/02/23 07:11:46;;;;;;;150.75;60.22;;;;;;;;;;5101585;28;20203;-96
2022/02/23 07:14:12;;;;;;;154.95;61.70;;;;;;;;;;5104613;28;20206;-96
2022/02/23 07:16:39;;;;;;;157.70;61.92;;;;;;;;;;5104131;28;20249;-92
2022/02/23 07:19:06;;;;;;;169.27;64.25;;;;;;;;;;5096768;28;20253;-96
2022/02/23 07:21:34;;;;;;;150.60;57.50;;;;;;;;;;5099589;28;20228;-96
2022/02/23 07:24:01;;;;;;;150.02;58.83;;;;;;;;;;5097242;28;20230;-93
2022/02/23 07:26:27;;;;;;;159.18;62.05;;;;;;;;;;5089485;28;20198;-95
2022/02/23 07:28:55;;;;;;;155.88;62.58;;;;;;;;;;5100115;28;20199;-95
2022/02/23 07:31:21;;;;;;;163.13;63.45;;;;;;;;;;5081805;28;20257;-94
2022/02/23 07:33:48;;;;;;;158.20;62.55;;;;;;;;;;5095708;28;20235;-95
2022/02/23 07:36:18;;;;;;;174.90;67.07;;;;;;;;;;5094832;28;20339;-96
2022/02/23 07:38:47;;;;;;;147.75;62.00;;;;;;;;;;5090594;28;20199;-95
2022/02/23 07:41:19;;;;;;;144.52;57.60;;;;;;;;;;5090552;28;20222;-92
2022/02/23 07:43:45;;;;;;;154.15;59.97;;;;;;;;;;5098690;28;20198;-95
2022/02/23 07:46:15;;;;;;;158.70;61.83;;;;;;;;;;5094427;28;20191;-95
2022/02/23 07:48:42;;;;;;;142.73;57.15;;;;;;;;;;5091431;28;20600;-93
2022/02/23 07:51:09;;;;;;;144.00;59.80;;;;;;;;;;5091752;28;20226;-91
2022/02/23 07:53:35;;;;;;;154.10;60.08;;;;;;;;;;5090440;28;20226;-94
2022/02/23 07:56:03;;;;;;;168.45;63.17;;;;;;;;;;5091000;28;20241;-96
2022/02/23 07:58:30;;;;;;;160.07;58.95;;;;;;;;;;5091967;28;20199;-95
2022/02/23 08:00:57;;;;;;;174.65;62.38;;;;;;;;;;5101915;28;20210;-95
2022/02/23 08:03:26;;;;;;;157.93;63.20;;;;;;;;;;5091317;28;20246;-93
2022/02/23 08:05:53;;;;;;;159.05;61.45;;;;;;;;;;5083836;28;20206;-94
2022/02/23 08:08:20;;;;;;;158.90;63.00;;;;;;;;;;5091216;28;21047;-96
2022/02/23 08:10:46;;;;;;;146.13;60.33;;;;;;;;;;5081171;28;20192;-93
2022/02/23 08:13:13;;;;;;;145.75;58.83;;;;;;;;;;5088247;28;20222;-93
2022/02/23 08:21:05;;;;;;;162.23;62.55;;;;;;;;;;5063603;28;20266;-94
2022/02/23 08:23:32;;;;;;;158.85;60.13;;;;;;;;;;5096250;28;20195;-93
2022/02/23 08:25:59;;;;;;;160.27;63.65;;;;;;;;;;5089936;28;20199;-95
2022/02/23 08:28:25;;;;;;;166.98;61.80;;;;;;;;;;5087267;28;20199;-96
2022/02/23 08:30:52;;;;;;;154.75;60.55;;;;;;;;;;5099292;28;20218;-96
2022/02/23 08:33:18;;;;;;;150.15;61.70;;;;;;;;;;5094439;28;20227;-95
2022/02/23 08:35:47;;;;;;;149.93;58.33;;;;;;;;;;5100294;28;20275;-96
2022/02/23 08:38:14;;;;;;;145.00;57.30;;;;;;;;;;5090384;28;20238;-94
2022/02/23 08:40:41;;;;;;;141.77;57.10;;;;;;;;;;5097507;28;20220;-94
2022/02/23 08:43:08;;;;;;;147.93;59.83;;;;;;;;;;5105456;28;20198;-95
2022/02/23 08:45:34;;;;;;;143.07;59.50;;;;;;;;;;5090234;28;20203;-93
2022/02/23 08:48:01;;;;;;;137.93;58.00;;;;;;;;;;5092014;28;20441;-93
2022/02/23 08:50:28;;;;;;;136.10;58.38;;;;;;;;;;5101976;28;20547;-96
2022/02/23 08:52:56;;;;;;;142.45;57.65;;;;;;;;;;5094635;28;20222;-93
2022/02/23 08:55:22;;;;;;;149.23;60.72;;;;;;;;;;5095866;28;20196;-94
2022/02/23 08:57:49;;;;;;;150.23;58.47;;;;;;;;;;5092852;28;20198;-95
2022/02/23 09:00:15;;;;;;;162.95;62.17;;;;;;;;;;5099934;28;20527;-96
2022/02/23 09:02:43;;;;;;;167.95;59.70;;;;;;;;;;5104797;28;20210;-94
2022/02/23 09:05:19;;;;;;;148.05;58.38;;;;;;;;;;5099910;28;20194;-95
2022/02/23 09:07:46;;;;;;;186.50;66.28;;;;;;;;;;5104155;28;20195;-95
2022/02/23 09:10:13;;;;;;;147.48;60.40;;;;;;;;;;5102276;28;20779;-92
2022/02/23 09:12:43;;;;;;;143.80;60.43;;;;;;;;;;5096401;28;20225;-96
2022/02/23 09:15:12;;;;;;;143.50;59.83;;;;;;;;;;5095744;28;20437;-96
2022/02/23 09:17:39;;;;;;;145.20;62.00;;;;;;;;;;5089491;28;20457;-96
2022/02/23 09:20:06;;;;;;;148.70;61.13;;;;;;;;;;5095539;28;20450;-96
2022/02/23 09:22:32;;;;;;;141.77;58.53;;;;;;;;;;5094526;28;20517;-96
2022/02/23 09:24:59;;;;;;;144.20;60.83;;;;;;;;;;5097211;28;20449;-95
2022/02/23 09:27:27;;;;;;;142.60;61.50;;;;;;;;;;5089938;28;20446;-96
2022/02/23 09:29:53;;;;;;;137.60;58.47;;;;;;;;;;5093323;28;20485;-95
2022/02/23 09:32:21;;;;;;;142.80;60.63;;;;;;;;;;5093523;28;20469;-96
2022/02/23 09:34:49;;;;;;;141.50;59.30;;;;;;;;;;5105484;28;20552;-96
2022/02/23 09:37:16;;;;;;;141.70;61.30;;;;;;;;;;5095192;28;20552;-93
2022/02/23 09:39:42;;;;;;;140.37;60.17;;;;;;;;;;5095491;28;20465;-96
2022/02/23 09:42:11;;;;;;;138.52;58.40;;;;;;;;;;5102781;28;20854;-96
2022/02/23 09:44:40;;;;;;;140.80;60.72;;;;;;;;;;5105825;28;20199;-96
2022/02/23 09:47:07;;;;;;;139.10;59.63;;;;;;;;;;5095437;28;20221;-95
2022/02/23 09:49:35;;;;;;;142.10;57.10;;;;;;;;;;5101339;28;20479;-96
2022/02/23 09:52:02;;;;;;;141.17;59.13;;;;;;;;;;5104382;28;20449;-96
2022/02/23 09:54:29;;;;;;;137.37;57.50;;;;;;;;;;5106484;28;20484;-95
2022/02/23 09:56:57;;;;;;;142.40;58.93;;;;;;;;;;5103552;28;20552;-96
2022/02/23 09:59:25;;;;;;;143.80;60.13;;;;;;;;;;5105141;28;20457;-96
2022/02/23 10:01:53;;;;;;;142.87;58.87;;;;;;;;;;5098426;28;20460;-95
2022/02/23 10:04:22;;;;;;;139.77;58.40;;;;;;;;;;5104652;28;20483;-95
2022/02/23 10:06:49;;;;;;;142.23;59.40;;;;;;;;;;5107130;28;20475;-96
2022/02/23 10:09:16;;;;;;;142.47;59.60;;;;;;;;;;5087224;28;20899;-95
2022/02/23 10:11:44;;;;;;;140.10;57.97;;;;;;;;;;5092397;28;20456;-95
2022/02/23 10:14:11;;;;;;;143.10;59.73;;;;;;;;;;5096724;28;20531;-96
2022/02/23 10:16:39;;;;;;;144.30;59.60;;;;;;;;;;5095204;28;20480;-96
2022/02/23 10:19:09;;;;;;;150.10;62.83;;;;;;;;;;5104451;28;20481;-95
2022/02/23 10:21:48;;;;;;;139.90;59.93;;;;;;;;;;5099912;28;20453;-95
2022/02/23 10:24:19;;;;;;;138.50;57.83;;;;;;;;;;5096578;28;20486;-96
2022/02/23 10:26:54;;;;;;;140.33;58.93;;;;;;;;;;5104507;28;20472;-96
2022/02/23 10:29:25;;;;;;;142.73;61.47;;;;;;;;;;5100912;28;20795;-94
2022/02/23 10:31:51;;;;;;;143.47;61.50;;;;;;;;;;5094098;28;20472;-96
2022/02/23 10:34:30;;;;;;;139.80;59.20;;;;;;;;;;5089072;28;20598;-95
2022/02/23 10:37:04;;;;;;;144.37;62.00;;;;;;;;;;5090882;28;20450;-94
2022/02/23 10:39:42;;;;;;;143.27;59.90;;;;;;;;;;5094459;28;20487;-96
2022/02/23 10:42:09;;;;;;;141.80;59.87;;;;;;;;;;5092833;28;20537;-96
2022/02/23 10:44:39;;;;;;;145.00;60.87;;;;;;;;;;5093864;28;20457;-95
2022/02/23 10:47:06;;;;;;;145.40;61.07;;;;;;;;;;5098757;28;20515;-95
2022/02/23 10:49:35;;;;;;;143.97;59.17;;;;;;;;;;5089573;28;20523;-96
2022/02/23 10:52:06;;;;;;;150.47;60.50;;;;;;;;;;5096984;28;20459;-96
2022/02/23 10:54:33;;;;;;;159.70;62.33;;;;;;;;;;5095194;28;20565;-96
2022/02/23 10:56:59;;;;;;;163.70;62.13;;;;;;;;;;5089493;28;20230;-95
2022/02/23 10:59:26;;;;;;;173.10;62.60;;;;;;;;;;5101534;28;21214;-95
2022/02/23 11:01:53;;;;;;;162.33;63.67;;;;;;;;;;5082334;28;20458;-96
2022/02/23 11:04:21;;;;;;;160.00;64.20;;;;;;;;;;5084381;28;20458;-93
2022/02/23 11:06:51;;;;;;;149.30;59.70;;;;;;;;;;5083942;28;20469;-96
2022/02/23 11:09:18;;;;;;;148.53;58.63;;;;;;;;;;5082903;28;20449;-96
2022/02/23 11:11:44;;;;;;;151.63;60.57;;;;;;;;;;5096875;28;20451;-92
2022/02/23 11:14:12;;;;;;;165.27;62.87;;;;;;;;;;5106633;28;20521;-96
2022/02/23 11:16:39;;;;;;;155.77;59.90;;;;;;;;;;5092141;28;20491;-96
2022/02/23 11:19:06;;;;;;;160.63;62.83;;;;;;;;;;5083025;28;20444;-93
2022/02/23 11:21:34;;;;;;;155.70;57.70;;;;;;;;;;5092914;28;20449;-96
2022/02/23 11:24:04;;;;;;;161.90;62.50;;;;;;;;;;5106471;28;20468;-96
2022/02/23 11:26:32;;;;;;;177.87;65.80;;;;;;;;;;5101188;28;20197;-96
2022/02/23 11:29:01;;;;;;;160.70;60.90;;;;;;;;;;5103663;28;20455;-95
2022/02/23 11:31:29;;;;;;;172.70;62.38;;;;;;;;;;5097364;28;21297;-96
2022/02/23 11:33:57;;;;;;;184.02;65.75;;;;;;;;;;5104319;28;20624;-93
2022/02/23 11:36:31;;;;;;;166.37;60.83;;;;;;;;;;5103092;28;20195;-95
2022/02/23 11:38:58;;;;;;;173.00;62.33;;;;;;;;;;5106173;28;21076;-93
2022/02/23 11:41:29;;;;;;;164.87;59.80;;;;;;;;;;5098547;28;20445;-95
2022/02/23 11:44:01;;;;;;;165.87;61.70;;;;;;;;;;5090434;28;20463;-96
2022/02/23 11:46:28;;;;;;;201.00;65.18;;;;;;;;;;5094694;28;20440;-93
2022/02/23 11:48:56;;;;;;;222.40;70.53;;;;;;;;;;5088515;28;20203;-94
2022/02/23 11:51:28;;;;;;;186.70;64.53;;;;;;;;;;5088857;28;20454;-91
2022/02/23 11:53:55;;;;;;;213.77;64.38;;;;;;;;;;5092096;28;20489;-95
2022/02/23 11:56:22;;;;;;;184.07;63.50;;;;;;;;;;5089342;28;21665;-96
2022/02/23 11:58:50;;;;;;;203.33;66.73;;;;;;;;;;5099039;28;20446;-96
2022/02/23 12:01:20;;;;;;;206.80;67.10;;;;;;;;;;5093545;28;20458;-96
2022/02/23 12:04:01;;;;;;;186.68;61.38;;;;;;;;;;5100552;28;20476;-93
2022/02/23 12:06:28;;;;;;;203.88;64.47;;;;;;;;;;5082768;28;20195;-94
2022/02/23 12:08:55;;;;;;;233.45;69.15;;;;;;;;;;5098525;28;20199;-95
2022/02/23 12:11:39;;;;;;;270.50;73.82;;;;;;;;;;5091552;28;20215;-96
2022/02/23 12:14:07;;;;;;;226.82;66.75;;;;;;;;;;5088476;28;20313;-94
2022/02/23 12:16:46;;;;;;;283.58;73.90;;;;;;;;;;5089740;28;20195;-95
2022/02/23 12:19:12;;;;;;;332.35;77.20;;;;;;;;;;5098611;28;20199;-92
2022/02/23 12:21:39;;;;;;;155.73;60.13;;;;;;;;;;5094654;28;20191;-96
2022/02/23 12:24:06;;;;;;;169.25;62.40;;;;;;;;;;5100878;28;20456;-95
2022/02/23 12:26:36;;;;;;;182.15;63.10;;;;;;;;;;5098579;28;20222;-95
2022/02/23 12:29:07;;;;;;;206.15;61.97;;;;;;;;;;5100474;28;20199;-96
2022/02/23 12:31:35;;;;;;;184.68;62.90;;;;;;;;;;5104647;28;20261;-96
2022/02/23 12:34:03;;;;;;;222.65;64.72;;;;;;;;;;5102871;28;20242;-96
2022/02/23 12:36:38;;;;;;;395.90;78.93;;;;;;;;;;5090572;28;20192;-95
2022/02/23 12:39:07;;;;;;;410.77;83.00;;;;;;;;;;5085039;28;20657;-96
2022/02/23 12:41:37;;;;;;;398.45;83.55;;;;;;;;;;5083066;28;20202;-95
2022/02/23 12:44:06;;;;;;;410.88;87.45;;;;;;;;;;5083134;28;20207;-96
2022/02/23 12:46:46;;;;;;;346.02;76.60;;;;;;;;;;5084802;28;20194;-96
2022/02/23 12:49:13;;;;;;;367.67;78.78;;;;;;;;;;5100714;28;20206;-95
2022/02/23 12:51:41;;;;;;;309.73;75.65;;;;;;;;;;5101577;28;20198;-96
2022/02/23 12:54:08;;;;;;;172.70;62.53;;;;;;;;;;5092857;28;20230;-96
2022/02/23 12:56:37;;;;;;;166.70;62.57;;;;;;;;;;5102180;28;20441;-92
2022/02/23 12:59:06;;;;;;;155.23;60.10;;;;;;;;;;5097775;28;20464;-96
2022/02/23 13:01:33;;;;;;;155.07;59.67;;;;;;;;;;5089069;28;20982;-95
2022/02/23 13:04:01;;;;;;;171.17;62.20;;;;;;;;;;5087576;28;20453;-93
2022/02/23 13:06:29;;;;;;;172.43;63.50;;;;;;;;;;5111812;28;20472;-96
2022/02/23 13:08:56;;;;;;;167.87;61.37;;;;;;;;;;5102546;28;20436;-95
2022/02/23 13:11:30;;;;;;;160.60;60.00;;;;;;;;;;5095552;28;20474;-95
2022/02/23 13:14:02;;;;;;;173.40;61.93;;;;;;;;;;5095159;28;20481;-94
2022/02/23 13:16:29;;;;;;;183.50;64.17;;;;;;;;;;5093884;28;20469;-92
2022/02/23 13:19:01;;;;;;;179.47;62.30;;;;;;;;;;5100932;28;20456;-95
2022/02/23 13:21:36;;;;;;;166.17;61.47;;;;;;;;;;5087722;28;20436;-95
2022/02/23 13:24:04;;;;;;;178.50;63.00;;;;;;;;;;5097043;28;20445;-94
2022/02/23 13:26:31;;;;;;;159.40;61.47;;;;;;;;;;5098771;28;20451;-96
2022/02/23 13:29:02;;;;;;;155.60;60.37;;;;;;;;;;5106911;28;20932;-92
2022/02/23 13:31:32;;;;;;;146.17;58.57;;;;;;;;;;5100278;28;20592;-96
2022/02/23 13:34:17;;;;;;;150.20;60.67;;;;;;;;;;5098266;28;20489;-93
2022/02/23 13:36:46;;;;;;;165.13;62.17;;;;;;;;;;5101189;28;20448;-96
2022/02/23 13:39:18;;;;;;;179.33;62.83;;;;;;;;;;5096290;28;20464;-95
2022/02/23 13:41:48;;;;;;;202.97;65.00;;;;;;;;;;5091667;28;20448;-95
2022/02/23 13:44:19;;;;;;;204.35;63.95;;;;;;;;;;5101448;28;20456;-94
2022/02/23 13:46:46;;;;;;;205.33;69.67;;;;;;;;;;5121464;28;20204;-91
2022/02/23 13:49:13;;;;;;;148.80;60.97;;;;;;;;;;5104154;28;20449;-96
2022/02/23 13:51:47;;;;;;;150.40;60.17;;;;;;;;;;5097759;28;20638;-93
2022/02/23 13:54:16;;;;;;;155.67;60.03;;;;;;;;;;5102437;28;20490;-92
2022/02/23 13:56:44;;;;;;;165.83;60.00;;;;;;;;;;5112250;28;20518;-95
2022/02/23 13:59:11;;;;;;;177.60;62.03;;;;;;;;;;5119888;28;20979;-94
2022/02/23 14:01:53;;;;;;;175.60;64.80;;;;;;;;;;5118803;28;20445;-94
2022/02/23 14:04:19;;;;;;;162.60;60.40;;;;;;;;;;5090236;28;20446;-94
2022/02/23 14:07:02;;;;;;;167.10;61.80;;;;;;;;;;5098146;28;20445;-95
2022/02/23 14:09:28;;;;;;;181.80;62.17;;;;;;;;;;5103425;28;20452;-95
2022/02/23 14:11:59;;;;;;;167.60;61.47;;;;;;;;;;5093101;28;20486;-96